Portada
METAR-TAF:

METAR-TAF

Aeropuertos :

Aeropuerto de Bornholm

Rønne, Dinamarca

latitud: 55-04N, longitud: 014-45E, altitud: 16 m

Observación

El informe se hizo hace 35 minutos, a las 11:20 UTC
Viento 6 kt del oeste, variando entre suroeste y oeste-noroeste
Temperatura 16°C
Humedad 77%
Presión 1025 hPa
Visibilidad 10 km o más

METAR: EKRN 191120Z AUTO 27006KT 220V300 9999 NCD 16/12 Q1025

Hora: 13:55 (11:55 UTC)

Pronóstico

El informe se hizo hace 30 minutos, a las 11:25 UTC
Pronóstico válido del 19 a las 12 UTC al 19 a las 20 UTC
Viento 6 kt del oeste
Visibilidad 10 km o más
sin nubes por debajo de 1500 m y sin presencia de cumulonimbus.

TAF: EKRN 191125Z 1912/1920 28006KT CAVOK

Observaciones y pronósticos meteorológicos de más de 4000 aeropuertos (mensajes METAR y TAF).

Los puntos amarillos y rojos representan las estaciones disponibles.

Ponga el ratón en el punto deseado para ver el nombre de la estación.

Haga clic para ver las observaciones y los pronósticos meteorológicos.

Para cambiar el mapa : haga clic en los botones verdes con una cruz de color negro para hacer un zoom, en el botón verde con un guión para alejar o en las flechas verdes para mapas adyacentes.


METAR-TAF: